KLWA

South Haven Area Regional Airport

South Haven, Michigan, USA
METAR KLWA 230237Z AUTO 00000KT 1/2SM FG OVC001 08/08 A3008 RMK AO2 T00820075
Observed Flight Rules
May-23 @ 02:37 UTC (13 minutes ago) Instrument Flight Rules
Visibility Clouds Conditions
1/2 miles
  • Overcast at 100' AGL
  • Fog
Temperatures Readings
Current 8°C / 46°F
Dewpoint 8°C / 46°F
Humidity 100%
Altimeter 30.08" Hg
Pressure 1019 hPa
Elevation 203
METAR KLWA 230237Z AUTO 00000KT 1/2SM FG OVC001 08/08 A3008 RMK AO2 T00820075
Observed Flight Rules
May-23 @ 02:37 UTC
(13 minutes ago)
LIFR
Clouds
  • Overcast at 100' AGL
Conditions
  • Fog
Temperature Dewpoint
8°C / 46°F 8°C / 46°F
Humidity Altimeter Pressure
100% 30.08" Hg 1019 hPa